sensor_id;sensor_type;location;lat;lon;timestamp;P1;durP1;ratioP1;P2;durP2;ratioP2
13733;SDS011;43298;52.560;13.508;2024-03-06T00:01:54;0.88;;;0.88;;
13733;SDS011;43298;52.560;13.508;2024-03-06T00:04:20;0.90;;;0.90;;
13733;SDS011;43298;52.560;13.508;2024-03-06T00:06:46;0.90;;;0.90;;
13733;SDS011;43298;52.560;13.508;2024-03-06T00:09:12;0.80;;;0.80;;
13733;SDS011;43298;52.560;13.508;2024-03-06T00:11:38;1.00;;;1.00;;
13733;SDS011;43298;52.560;13.508;2024-03-06T00:14:05;1.10;;;1.10;;
13733;SDS011;43298;52.560;13.508;2024-03-06T00:16:31;2.47;;;2.15;;
13733;SDS011;43298;52.560;13.508;2024-03-06T00:18:57;1.00;;;1.00;;
13733;SDS011;43298;52.560;13.508;2024-03-06T00:21:23;1.23;;;1.20;;
13733;SDS011;43298;52.560;13.508;2024-03-06T00:23:49;1.20;;;1.20;;
13733;SDS011;43298;52.560;13.508;2024-03-06T00:26:14;1.42;;;1.33;;
13733;SDS011;43298;52.560;13.508;2024-03-06T00:28:40;1.20;;;1.20;;
13733;SDS011;43298;52.560;13.508;2024-03-06T00:31:06;1.90;;;1.80;;
13733;SDS011;43298;52.560;13.508;2024-03-06T00:33:32;1.30;;;1.30;;
13733;SDS011;43298;52.560;13.508;2024-03-06T00:35:58;3.03;;;2.28;;
13733;SDS011;43298;52.560;13.508;2024-03-06T00:38:24;1.30;;;1.30;;
13733;SDS011;43298;52.560;13.508;2024-03-06T00:40:50;1.60;;;1.50;;
13733;SDS011;43298;52.560;13.508;2024-03-06T00:43:16;1.35;;;1.35;;
13733;SDS011;43298;52.560;13.508;2024-03-06T00:45:47;1.30;;;1.30;;
13733;SDS011;43298;52.560;13.508;2024-03-06T00:48:13;1.80;;;1.70;;
13733;SDS011;43298;52.560;13.508;2024-03-06T00:50:39;1.75;;;1.65;;
13733;SDS011;43298;52.560;13.508;2024-03-06T00:53:05;1.98;;;1.88;;
13733;SDS011;43298;52.560;13.508;2024-03-06T00:55:32;1.50;;;1.45;;
13733;SDS011;43298;52.560;13.508;2024-03-06T00:57:57;1.80;;;1.70;;
13733;SDS011;43298;52.560;13.508;2024-03-06T01:00:23;1.42;;;1.42;;
13733;SDS011;43298;52.560;13.508;2024-03-06T01:02:49;1.50;;;1.50;;
13733;SDS011;43298;52.560;13.508;2024-03-06T01:05:15;1.20;;;1.20;;
13733;SDS011;43298;52.560;13.508;2024-03-06T01:07:42;1.65;;;1.55;;
13733;SDS011;43298;52.560;13.508;2024-03-06T01:10:08;1.55;;;1.50;;
13733;SDS011;43298;52.560;13.508;2024-03-06T01:12:34;1.70;;;1.60;;
13733;SDS011;43298;52.560;13.508;2024-03-06T01:15:00;1.65;;;1.55;;
13733;SDS011;43298;52.560;13.508;2024-03-06T01:17:26;1.92;;;1.83;;
13733;SDS011;43298;52.560;13.508;2024-03-06T01:19:52;1.83;;;1.73;;
13733;SDS011;43298;52.560;13.508;2024-03-06T01:22:18;1.80;;;1.70;;
13733;SDS011;43298;52.560;13.508;2024-03-06T01:24:44;1.70;;;1.60;;
13733;SDS011;43298;52.560;13.508;2024-03-06T01:27:10;1.73;;;1.63;;
13733;SDS011;43298;52.560;13.508;2024-03-06T01:29:35;1.90;;;1.80;;
13733;SDS011;43298;52.560;13.508;2024-03-06T01:32:01;1.73;;;1.63;;
13733;SDS011;43298;52.560;13.508;2024-03-06T01:34:27;1.80;;;1.70;;
13733;SDS011;43298;52.560;13.508;2024-03-06T01:36:53;2.13;;;2.03;;
13733;SDS011;43298;52.560;13.508;2024-03-06T01:39:19;1.98;;;1.88;;
13733;SDS011;43298;52.560;13.508;2024-03-06T01:41:45;1.75;;;1.65;;
13733;SDS011;43298;52.560;13.508;2024-03-06T01:44:12;2.90;;;2.75;;
13733;SDS011;43298;52.560;13.508;2024-03-06T01:46:39;1.80;;;1.70;;
13733;SDS011;43298;52.560;13.508;2024-03-06T01:49:05;2.00;;;1.90;;
13733;SDS011;43298;52.560;13.508;2024-03-06T01:51:32;1.90;;;1.80;;
13733;SDS011;43298;52.560;13.508;2024-03-06T01:53:58;2.20;;;2.10;;
13733;SDS011;43298;52.560;13.508;2024-03-06T01:56:29;2.00;;;1.90;;
13733;SDS011;43298;52.560;13.508;2024-03-06T01:58:56;2.10;;;2.00;;
13733;SDS011;43298;52.560;13.508;2024-03-06T02:01:23;2.00;;;1.90;;
13733;SDS011;43298;52.560;13.508;2024-03-06T02:03:49;2.05;;;1.95;;
13733;SDS011;43298;52.560;13.508;2024-03-06T02:06:16;2.00;;;1.90;;
13733;SDS011;43298;52.560;13.508;2024-03-06T02:08:44;2.20;;;2.10;;
13733;SDS011;43298;52.560;13.508;2024-03-06T02:11:11;4.18;;;2.47;;
13733;SDS011;43298;52.560;13.508;2024-03-06T02:13:38;1.95;;;1.85;;
13733;SDS011;43298;52.560;13.508;2024-03-06T02:16:05;2.00;;;1.90;;
13733;SDS011;43298;52.560;13.508;2024-03-06T02:18:31;1.90;;;1.80;;
13733;SDS011;43298;52.560;13.508;2024-03-06T02:20:57;2.00;;;1.90;;
13733;SDS011;43298;52.560;13.508;2024-03-06T02:23:22;2.67;;;2.13;;
13733;SDS011;43298;52.560;13.508;2024-03-06T02:25:48;2.00;;;1.90;;
13733;SDS011;43298;52.560;13.508;2024-03-06T02:28:15;2.30;;;2.20;;
13733;SDS011;43298;52.560;13.508;2024-03-06T02:30:42;2.40;;;2.30;;
13733;SDS011;43298;52.560;13.508;2024-03-06T02:33:08;2.35;;;2.25;;
13733;SDS011;43298;52.560;13.508;2024-03-06T02:35:34;2.20;;;2.10;;
13733;SDS011;43298;52.560;13.508;2024-03-06T02:38:01;2.20;;;2.10;;
13733;SDS011;43298;52.560;13.508;2024-03-06T02:40:32;2.00;;;1.90;;
13733;SDS011;43298;52.560;13.508;2024-03-06T02:42:58;2.15;;;2.05;;
13733;SDS011;43298;52.560;13.508;2024-03-06T02:45:24;2.30;;;2.20;;
13733;SDS011;43298;52.560;13.508;2024-03-06T02:47:50;2.30;;;2.20;;
13733;SDS011;43298;52.560;13.508;2024-03-06T02:50:16;2.40;;;2.30;;
13733;SDS011;43298;52.560;13.508;2024-03-06T02:52:41;2.40;;;2.30;;
13733;SDS011;43298;52.560;13.508;2024-03-06T02:55:07;2.10;;;2.00;;
13733;SDS011;43298;52.560;13.508;2024-03-06T02:57:34;2.17;;;2.08;;
13733;SDS011;43298;52.560;13.508;2024-03-06T02:59:59;2.40;;;2.30;;
13733;SDS011;43298;52.560;13.508;2024-03-06T03:02:25;2.83;;;2.72;;
13733;SDS011;43298;52.560;13.508;2024-03-06T03:04:51;2.13;;;2.03;;
13733;SDS011;43298;52.560;13.508;2024-03-06T03:07:18;2.42;;;2.33;;
13733;SDS011;43298;52.560;13.508;2024-03-06T03:09:47;2.10;;;2.00;;
13733;SDS011;43298;52.560;13.508;2024-03-06T03:12:13;2.20;;;2.10;;
13733;SDS011;43298;52.560;13.508;2024-03-06T03:14:41;2.50;;;2.40;;
13733;SDS011;43298;52.560;13.508;2024-03-06T03:17:08;2.35;;;2.25;;
13733;SDS011;43298;52.560;13.508;2024-03-06T03:19:34;2.30;;;2.20;;
13733;SDS011;43298;52.560;13.508;2024-03-06T03:22:00;2.35;;;2.25;;
13733;SDS011;43298;52.560;13.508;2024-03-06T03:24:29;2.35;;;2.25;;
13733;SDS011;43298;52.560;13.508;2024-03-06T03:26:55;2.20;;;2.10;;
13733;SDS011;43298;52.560;13.508;2024-03-06T03:29:21;2.10;;;2.00;;
13733;SDS011;43298;52.560;13.508;2024-03-06T03:31:47;2.53;;;2.42;;
13733;SDS011;43298;52.560;13.508;2024-03-06T03:34:13;2.80;;;2.70;;
13733;SDS011;43298;52.560;13.508;2024-03-06T03:36:42;2.30;;;2.20;;
13733;SDS011;43298;52.560;13.508;2024-03-06T03:39:10;2.58;;;2.47;;
13733;SDS011;43298;52.560;13.508;2024-03-06T03:41:46;2.50;;;2.40;;
13733;SDS011;43298;52.560;13.508;2024-03-06T03:44:13;2.78;;;2.67;;
13733;SDS011;43298;52.560;13.508;2024-03-06T03:46:40;2.33;;;2.22;;
13733;SDS011;43298;52.560;13.508;2024-03-06T03:49:07;2.30;;;2.20;;
13733;SDS011;43298;52.560;13.508;2024-03-06T03:51:36;2.42;;;2.33;;
13733;SDS011;43298;52.560;13.508;2024-03-06T03:54:03;2.50;;;2.40;;
13733;SDS011;43298;52.560;13.508;2024-03-06T03:56:30;2.53;;;2.42;;
13733;SDS011;43298;52.560;13.508;2024-03-06T03:58:57;2.40;;;2.30;;
13733;SDS011;43298;52.560;13.508;2024-03-06T04:01:23;2.30;;;2.20;;
13733;SDS011;43298;52.560;13.508;2024-03-06T04:03:50;2.88;;;2.78;;
13733;SDS011;43298;52.560;13.508;2024-03-06T04:06:17;2.45;;;2.35;;
13733;SDS011;43298;52.560;13.508;2024-03-06T04:08:43;2.47;;;2.38;;
13733;SDS011;43298;52.560;13.508;2024-03-06T04:11:09;2.60;;;2.50;;
13733;SDS011;43298;52.560;13.508;2024-03-06T04:13:38;2.38;;;2.28;;
13733;SDS011;43298;52.560;13.508;2024-03-06T04:16:04;2.83;;;2.72;;
13733;SDS011;43298;52.560;13.508;2024-03-06T04:18:31;2.42;;;2.33;;
13733;SDS011;43298;52.560;13.508;2024-03-06T04:20:59;2.35;;;2.25;;
13733;SDS011;43298;52.560;13.508;2024-03-06T04:23:31;3.28;;;3.15;;
13733;SDS011;43298;52.560;13.508;2024-03-06T04:25:58;2.60;;;2.50;;
13733;SDS011;43298;52.560;13.508;2024-03-06T04:28:24;2.47;;;2.38;;
13733;SDS011;43298;52.560;13.508;2024-03-06T04:30:50;2.67;;;2.58;;
13733;SDS011;43298;52.560;13.508;2024-03-06T04:33:16;2.30;;;2.20;;
13733;SDS011;43298;52.560;13.508;2024-03-06T04:35:42;2.40;;;2.30;;
13733;SDS011;43298;52.560;13.508;2024-03-06T04:38:08;2.50;;;2.40;;
13733;SDS011;43298;52.560;13.508;2024-03-06T04:40:33;2.60;;;2.50;;
13733;SDS011;43298;52.560;13.508;2024-03-06T04:43:00;2.58;;;2.47;;
13733;SDS011;43298;52.560;13.508;2024-03-06T04:45:26;2.45;;;2.35;;
13733;SDS011;43298;52.560;13.508;2024-03-06T04:47:53;2.60;;;2.50;;
13733;SDS011;43298;52.560;13.508;2024-03-06T04:50:21;2.50;;;2.40;;
13733;SDS011;43298;52.560;13.508;2024-03-06T04:52:47;2.40;;;2.30;;
13733;SDS011;43298;52.560;13.508;2024-03-06T04:55:12;2.40;;;2.30;;
13733;SDS011;43298;52.560;13.508;2024-03-06T04:57:42;2.65;;;2.55;;
13733;SDS011;43298;52.560;13.508;2024-03-06T05:00:09;2.22;;;2.13;;
13733;SDS011;43298;52.560;13.508;2024-03-06T05:02:36;2.80;;;2.70;;
13733;SDS011;43298;52.560;13.508;2024-03-06T05:05:06;3.72;;;3.53;;
13733;SDS011;43298;52.560;13.508;2024-03-06T05:07:33;3.45;;;3.28;;
13733;SDS011;43298;52.560;13.508;2024-03-06T05:10:00;2.55;;;2.45;;
13733;SDS011;43298;52.560;13.508;2024-03-06T05:12:26;2.47;;;2.38;;
13733;SDS011;43298;52.560;13.508;2024-03-06T05:14:53;2.47;;;2.38;;
13733;SDS011;43298;52.560;13.508;2024-03-06T05:17:20;2.55;;;2.45;;
13733;SDS011;43298;52.560;13.508;2024-03-06T05:19:46;2.47;;;2.38;;
13733;SDS011;43298;52.560;13.508;2024-03-06T05:22:14;2.70;;;2.60;;
13733;SDS011;43298;52.560;13.508;2024-03-06T05:24:42;3.05;;;2.85;;
13733;SDS011;43298;52.560;13.508;2024-03-06T05:27:08;2.40;;;2.30;;
13733;SDS011;43298;52.560;13.508;2024-03-06T05:29:36;2.35;;;2.25;;
13733;SDS011;43298;52.560;13.508;2024-03-06T05:32:02;2.40;;;2.30;;
13733;SDS011;43298;52.560;13.508;2024-03-06T05:34:32;2.20;;;2.10;;
13733;SDS011;43298;52.560;13.508;2024-03-06T05:36:59;2.30;;;2.20;;
13733;SDS011;43298;52.560;13.508;2024-03-06T05:39:26;3.13;;;3.03;;
13733;SDS011;43298;52.560;13.508;2024-03-06T05:41:54;2.53;;;2.42;;
13733;SDS011;43298;52.560;13.508;2024-03-06T05:44:20;2.25;;;2.15;;
13733;SDS011;43298;52.560;13.508;2024-03-06T05:46:46;1.85;;;1.75;;
13733;SDS011;43298;52.560;13.508;2024-03-06T05:49:13;2.22;;;2.13;;
13733;SDS011;43298;52.560;13.508;2024-03-06T05:51:39;1.95;;;1.85;;
13733;SDS011;43298;52.560;13.508;2024-03-06T05:54:05;1.90;;;1.80;;
13733;SDS011;43298;52.560;13.508;2024-03-06T05:56:33;1.77;;;1.67;;
13733;SDS011;43298;52.560;13.508;2024-03-06T05:59:00;1.77;;;1.67;;
13733;SDS011;43298;52.560;13.508;2024-03-06T06:01:30;1.70;;;1.60;;
13733;SDS011;43298;52.560;13.508;2024-03-06T06:03:56;1.83;;;1.73;;
13733;SDS011;43298;52.560;13.508;2024-03-06T06:06:22;1.90;;;1.80;;
13733;SDS011;43298;52.560;13.508;2024-03-06T06:08:48;2.50;;;2.30;;
13733;SDS011;43298;52.560;13.508;2024-03-06T06:11:13;1.90;;;1.80;;
13733;SDS011;43298;52.560;13.508;2024-03-06T06:13:39;1.90;;;1.80;;
13733;SDS011;43298;52.560;13.508;2024-03-06T06:16:05;1.70;;;1.60;;
13733;SDS011;43298;52.560;13.508;2024-03-06T06:18:32;2.13;;;2.03;;
13733;SDS011;43298;52.560;13.508;2024-03-06T06:20:58;1.80;;;1.70;;
13733;SDS011;43298;52.560;13.508;2024-03-06T06:23:24;1.88;;;1.77;;
13733;SDS011;43298;52.560;13.508;2024-03-06T06:25:51;2.00;;;1.90;;
13733;SDS011;43298;52.560;13.508;2024-03-06T06:28:17;3.25;;;3.05;;
13733;SDS011;43298;52.560;13.508;2024-03-06T06:30:42;1.98;;;1.90;;
13733;SDS011;43298;52.560;13.508;2024-03-06T06:33:08;1.90;;;1.80;;
13733;SDS011;43298;52.560;13.508;2024-03-06T06:35:34;3.65;;;3.45;;
13733;SDS011;43298;52.560;13.508;2024-03-06T06:38:01;1.70;;;1.60;;
13733;SDS011;43298;52.560;13.508;2024-03-06T06:40:27;1.50;;;1.50;;
13733;SDS011;43298;52.560;13.508;2024-03-06T06:42:53;2.05;;;1.95;;
13733;SDS011;43298;52.560;13.508;2024-03-06T06:45:19;1.80;;;1.70;;
13733;SDS011;43298;52.560;13.508;2024-03-06T06:47:49;1.40;;;1.40;;
13733;SDS011;43298;52.560;13.508;2024-03-06T06:50:16;1.73;;;1.63;;
13733;SDS011;43298;52.560;13.508;2024-03-06T06:52:42;1.52;;;1.50;;
13733;SDS011;43298;52.560;13.508;2024-03-06T06:55:08;1.55;;;1.45;;
13733;SDS011;43298;52.560;13.508;2024-03-06T06:57:36;1.50;;;1.50;;
13733;SDS011;43298;52.560;13.508;2024-03-06T07:00:03;1.67;;;1.58;;
13733;SDS011;43298;52.560;13.508;2024-03-06T07:02:41;1.63;;;1.52;;
13733;SDS011;43298;52.560;13.508;2024-03-06T07:05:08;1.23;;;1.23;;
13733;SDS011;43298;52.560;13.508;2024-03-06T07:07:35;1.30;;;1.30;;
13733;SDS011;43298;52.560;13.508;2024-03-06T07:10:02;1.40;;;1.40;;
13733;SDS011;43298;52.560;13.508;2024-03-06T07:12:28;1.52;;;1.45;;
13733;SDS011;43298;52.560;13.508;2024-03-06T07:14:55;1.75;;;1.65;;
13733;SDS011;43298;52.560;13.508;2024-03-06T07:17:21;1.25;;;1.25;;
13733;SDS011;43298;52.560;13.508;2024-03-06T07:19:47;2.20;;;2.10;;
13733;SDS011;43298;52.560;13.508;2024-03-06T07:22:13;1.27;;;1.27;;
13733;SDS011;43298;52.560;13.508;2024-03-06T07:24:38;1.15;;;1.15;;
13733;SDS011;43298;52.560;13.508;2024-03-06T07:27:05;1.13;;;1.10;;
13733;SDS011;43298;52.560;13.508;2024-03-06T07:29:31;1.00;;;1.00;;
13733;SDS011;43298;52.560;13.508;2024-03-06T07:31:56;1.00;;;1.00;;
13733;SDS011;43298;52.560;13.508;2024-03-06T07:34:22;0.98;;;0.98;;
13733;SDS011;43298;52.560;13.508;2024-03-06T07:36:48;0.90;;;0.90;;
13733;SDS011;43298;52.560;13.508;2024-03-06T07:39:19;0.80;;;0.80;;
13733;SDS011;43298;52.560;13.508;2024-03-06T07:41:45;2.53;;;2.35;;
13733;SDS011;43298;52.560;13.508;2024-03-06T07:44:11;0.90;;;0.90;;
13733;SDS011;43298;52.560;13.508;2024-03-06T07:46:38;1.00;;;1.00;;
13733;SDS011;43298;52.560;13.508;2024-03-06T07:49:03;1.63;;;1.52;;
13733;SDS011;43298;52.560;13.508;2024-03-06T07:51:30;1.63;;;1.52;;
13733;SDS011;43298;52.560;13.508;2024-03-06T07:53:57;0.90;;;0.90;;
13733;SDS011;43298;52.560;13.508;2024-03-06T07:56:25;1.95;;;1.77;;
13733;SDS011;43298;52.560;13.508;2024-03-06T07:58:51;1.73;;;1.63;;
13733;SDS011;43298;52.560;13.508;2024-03-06T08:01:17;2.35;;;2.15;;
13733;SDS011;43298;52.560;13.508;2024-03-06T08:03:43;0.73;;;0.73;;
13733;SDS011;43298;52.560;13.508;2024-03-06T08:06:09;0.70;;;0.70;;
13733;SDS011;43298;52.560;13.508;2024-03-06T08:08:35;0.70;;;0.70;;
13733;SDS011;43298;52.560;13.508;2024-03-06T08:11:02;1.83;;;1.73;;
13733;SDS011;43298;52.560;13.508;2024-03-06T08:13:28;0.90;;;0.90;;
13733;SDS011;43298;52.560;13.508;2024-03-06T08:15:54;1.00;;;1.00;;
13733;SDS011;43298;52.560;13.508;2024-03-06T08:18:20;1.00;;;1.00;;
13733;SDS011;43298;52.560;13.508;2024-03-06T08:20:46;1.02;;;1.02;;
13733;SDS011;43298;52.560;13.508;2024-03-06T08:23:12;0.60;;;0.60;;
13733;SDS011;43298;52.560;13.508;2024-03-06T08:25:40;1.30;;;1.30;;
13733;SDS011;43298;52.560;13.508;2024-03-06T08:28:06;0.70;;;0.70;;
13733;SDS011;43298;52.560;13.508;2024-03-06T08:30:32;1.48;;;1.15;;
13733;SDS011;43298;52.560;13.508;2024-03-06T08:32:58;0.60;;;0.60;;
13733;SDS011;43298;52.560;13.508;2024-03-06T08:35:24;1.20;;;1.13;;
13733;SDS011;43298;52.560;13.508;2024-03-06T08:37:50;0.60;;;0.60;;
13733;SDS011;43298;52.560;13.508;2024-03-06T08:40:16;0.70;;;0.70;;
13733;SDS011;43298;52.560;13.508;2024-03-06T08:42:46;0.50;;;0.50;;
13733;SDS011;43298;52.560;13.508;2024-03-06T08:45:13;0.50;;;0.50;;
13733;SDS011;43298;52.560;13.508;2024-03-06T08:47:40;0.60;;;0.60;;
13733;SDS011;43298;52.560;13.508;2024-03-06T08:50:09;1.05;;;1.05;;
13733;SDS011;43298;52.560;13.508;2024-03-06T08:52:36;2.03;;;1.80;;
13733;SDS011;43298;52.560;13.508;2024-03-06T08:55:03;0.60;;;0.60;;
13733;SDS011;43298;52.560;13.508;2024-03-06T08:57:30;0.68;;;0.68;;
13733;SDS011;43298;52.560;13.508;2024-03-06T09:00:00;0.40;;;0.40;;
13733;SDS011;43298;52.560;13.508;2024-03-06T09:02:36;0.60;;;0.60;;
13733;SDS011;43298;52.560;13.508;2024-03-06T09:05:06;2.38;;;1.17;;
13733;SDS011;43298;52.560;13.508;2024-03-06T09:07:35;0.50;;;0.50;;
13733;SDS011;43298;52.560;13.508;2024-03-06T09:10:05;0.85;;;0.85;;
13733;SDS011;43298;52.560;13.508;2024-03-06T09:12:32;0.50;;;0.50;;
13733;SDS011;43298;52.560;13.508;2024-03-06T09:14:58;2.42;;;0.85;;
13733;SDS011;43298;52.560;13.508;2024-03-06T09:17:25;2.38;;;0.82;;
13733;SDS011;43298;52.560;13.508;2024-03-06T09:19:51;0.52;;;0.52;;
13733;SDS011;43298;52.560;13.508;2024-03-06T09:22:18;0.63;;;0.63;;
13733;SDS011;43298;52.560;13.508;2024-03-06T09:24:44;1.55;;;0.75;;
13733;SDS011;43298;52.560;13.508;2024-03-06T09:27:10;1.48;;;1.35;;
13733;SDS011;43298;52.560;13.508;2024-03-06T09:29:39;0.43;;;0.43;;
13733;SDS011;43298;52.560;13.508;2024-03-06T09:32:05;0.40;;;0.40;;
13733;SDS011;43298;52.560;13.508;2024-03-06T09:34:31;2.15;;;1.05;;
13733;SDS011;43298;52.560;13.508;2024-03-06T09:36:57;0.57;;;0.57;;
13733;SDS011;43298;52.560;13.508;2024-03-06T09:39:23;0.60;;;0.60;;
13733;SDS011;43298;52.560;13.508;2024-03-06T09:41:49;0.45;;;0.45;;
13733;SDS011;43298;52.560;13.508;2024-03-06T09:44:16;2.30;;;1.17;;
13733;SDS011;43298;52.560;13.508;2024-03-06T09:46:46;0.82;;;0.82;;
13733;SDS011;43298;52.560;13.508;2024-03-06T09:49:14;0.50;;;0.50;;
13733;SDS011;43298;52.560;13.508;2024-03-06T09:51:48;5.13;;;1.38;;
13733;SDS011;43298;52.560;13.508;2024-03-06T09:54:18;0.57;;;0.57;;
13733;SDS011;43298;52.560;13.508;2024-03-06T09:56:45;2.83;;;0.90;;
13733;SDS011;43298;52.560;13.508;2024-03-06T09:59:13;0.50;;;0.50;;
13733;SDS011;43298;52.560;13.508;2024-03-06T10:01:46;0.40;;;0.40;;
13733;SDS011;43298;52.560;13.508;2024-03-06T10:04:20;2.05;;;1.00;;
13733;SDS011;43298;52.560;13.508;2024-03-06T10:06:57;0.30;;;0.30;;
13733;SDS011;43298;52.560;13.508;2024-03-06T10:09:24;1.55;;;0.73;;
13733;SDS011;43298;52.560;13.508;2024-03-06T10:11:52;0.50;;;0.50;;
13733;SDS011;43298;52.560;13.508;2024-03-06T10:14:19;0.30;;;0.30;;
13733;SDS011;43298;52.560;13.508;2024-03-06T10:16:58;0.20;;;0.20;;
13733;SDS011;43298;52.560;13.508;2024-03-06T10:19:28;0.73;;;0.73;;
13733;SDS011;43298;52.560;13.508;2024-03-06T10:21:56;3.97;;;1.08;;
13733;SDS011;43298;52.560;13.508;2024-03-06T10:24:26;1.17;;;1.10;;
13733;SDS011;43298;52.560;13.508;2024-03-06T10:26:57;1.55;;;1.38;;
13733;SDS011;43298;52.560;13.508;2024-03-06T10:29:25;0.77;;;0.77;;
13733;SDS011;43298;52.560;13.508;2024-03-06T10:31:54;0.70;;;0.65;;
13733;SDS011;43298;52.560;13.508;2024-03-06T10:34:23;0.30;;;0.30;;
13733;SDS011;43298;52.560;13.508;2024-03-06T10:39:22;0.68;;;0.68;;
13733;SDS011;43298;52.560;13.508;2024-03-06T10:41:52;0.40;;;0.40;;
13733;SDS011;43298;52.560;13.508;2024-03-06T10:44:21;2.75;;;1.17;;
13733;SDS011;43298;52.560;13.508;2024-03-06T10:46:51;0.50;;;0.50;;
13733;SDS011;43298;52.560;13.508;2024-03-06T10:49:29;1.13;;;1.08;;
13733;SDS011;43298;52.560;13.508;2024-03-06T10:51:59;0.32;;;0.32;;
13733;SDS011;43298;52.560;13.508;2024-03-06T10:54:30;0.50;;;0.50;;
13733;SDS011;43298;52.560;13.508;2024-03-06T10:56:59;1.67;;;0.88;;
13733;SDS011;43298;52.560;13.508;2024-03-06T10:59:27;1.35;;;0.90;;
13733;SDS011;43298;52.560;13.508;2024-03-06T11:01:54;4.35;;;2.53;;
13733;SDS011;43298;52.560;13.508;2024-03-06T11:04:30;0.60;;;0.60;;
13733;SDS011;43298;52.560;13.508;2024-03-06T11:07:00;0.70;;;0.68;;
13733;SDS011;43298;52.560;13.508;2024-03-06T11:09:34;0.52;;;0.52;;
13733;SDS011;43298;52.560;13.508;2024-03-06T11:12:05;0.50;;;0.50;;
13733;SDS011;43298;52.560;13.508;2024-03-06T11:14:32;0.60;;;0.60;;
13733;SDS011;43298;52.560;13.508;2024-03-06T11:17:10;0.85;;;0.85;;
13733;SDS011;43298;52.560;13.508;2024-03-06T11:28:15;0.60;;;0.60;;
13733;SDS011;43298;52.560;13.508;2024-03-06T11:30:46;1.55;;;1.20;;
13733;SDS011;43298;52.560;13.508;2024-03-06T11:33:44;1.45;;;1.30;;
13733;SDS011;43298;52.560;13.508;2024-03-06T11:36:15;1.00;;;0.90;;
13733;SDS011;43298;52.560;13.508;2024-03-06T11:41:27;0.50;;;0.50;;
13733;SDS011;43298;52.560;13.508;2024-03-06T11:44:00;1.15;;;1.15;;
13733;SDS011;43298;52.560;13.508;2024-03-06T11:46:45;1.25;;;1.15;;
13733;SDS011;43298;52.560;13.508;2024-03-06T11:49:23;2.72;;;1.25;;
13733;SDS011;43298;52.560;13.508;2024-03-06T11:51:51;1.27;;;1.13;;
13733;SDS011;43298;52.560;13.508;2024-03-06T11:54:18;0.95;;;0.95;;
13733;SDS011;43298;52.560;13.508;2024-03-06T11:56:48;1.20;;;0.73;;
13733;SDS011;43298;52.560;13.508;2024-03-06T11:59:16;0.70;;;0.70;;
13733;SDS011;43298;52.560;13.508;2024-03-06T12:01:42;0.85;;;0.85;;
13733;SDS011;43298;52.560;13.508;2024-03-06T12:04:09;0.52;;;0.52;;
13733;SDS011;43298;52.560;13.508;2024-03-06T12:06:36;1.83;;;1.02;;
13733;SDS011;43298;52.560;13.508;2024-03-06T12:09:02;1.20;;;1.00;;
13733;SDS011;43298;52.560;13.508;2024-03-06T12:11:28;0.40;;;0.40;;
13733;SDS011;43298;52.560;13.508;2024-03-06T12:13:56;0.25;;;0.25;;
13733;SDS011;43298;52.560;13.508;2024-03-06T12:16:22;0.40;;;0.40;;
13733;SDS011;43298;52.560;13.508;2024-03-06T12:18:55;0.30;;;0.30;;
13733;SDS011;43298;52.560;13.508;2024-03-06T12:21:27;0.88;;;0.88;;
13733;SDS011;43298;52.560;13.508;2024-03-06T12:24:06;0.28;;;0.28;;
13733;SDS011;43298;52.560;13.508;2024-03-06T12:26:33;0.20;;;0.20;;
13733;SDS011;43298;52.560;13.508;2024-03-06T12:29:06;0.63;;;0.57;;
13733;SDS011;43298;52.560;13.508;2024-03-06T12:31:34;0.88;;;0.88;;
13733;SDS011;43298;52.560;13.508;2024-03-06T12:34:02;0.70;;;0.60;;
13733;SDS011;43298;52.560;13.508;2024-03-06T12:36:29;3.83;;;1.35;;
13733;SDS011;43298;52.560;13.508;2024-03-06T12:38:59;0.63;;;0.63;;
13733;SDS011;43298;52.560;13.508;2024-03-06T12:41:28;0.30;;;0.30;;
13733;SDS011;43298;52.560;13.508;2024-03-06T12:43:55;0.30;;;0.30;;
13733;SDS011;43298;52.560;13.508;2024-03-06T12:46:22;0.73;;;0.73;;
13733;SDS011;43298;52.560;13.508;2024-03-06T12:48:49;1.52;;;1.45;;
13733;SDS011;43298;52.560;13.508;2024-03-06T12:51:15;1.38;;;1.08;;
13733;SDS011;43298;52.560;13.508;2024-03-06T12:53:41;0.60;;;0.60;;
13733;SDS011;43298;52.560;13.508;2024-03-06T12:56:07;0.30;;;0.30;;
13733;SDS011;43298;52.560;13.508;2024-03-06T12:58:35;6.18;;;2.22;;
13733;SDS011;43298;52.560;13.508;2024-03-06T13:01:01;0.50;;;0.50;;
13733;SDS011;43298;52.560;13.508;2024-03-06T13:03:27;0.30;;;0.30;;
13733;SDS011;43298;52.560;13.508;2024-03-06T13:05:53;1.00;;;1.00;;
13733;SDS011;43298;52.560;13.508;2024-03-06T13:08:19;0.52;;;0.50;;
13733;SDS011;43298;52.560;13.508;2024-03-06T13:10:45;2.08;;;1.98;;
13733;SDS011;43298;52.560;13.508;2024-03-06T13:13:10;4.13;;;1.23;;
13733;SDS011;43298;52.560;13.508;2024-03-06T13:15:36;3.08;;;1.67;;
13733;SDS011;43298;52.560;13.508;2024-03-06T13:18:03;0.50;;;0.50;;
13733;SDS011;43298;52.560;13.508;2024-03-06T13:20:30;0.50;;;0.50;;
13733;SDS011;43298;52.560;13.508;2024-03-06T13:22:56;0.50;;;0.50;;
13733;SDS011;43298;52.560;13.508;2024-03-06T13:25:22;0.90;;;0.90;;
13733;SDS011;43298;52.560;13.508;2024-03-06T13:27:48;1.67;;;1.58;;
13733;SDS011;43298;52.560;13.508;2024-03-06T13:30:15;2.50;;;1.35;;
13733;SDS011;43298;52.560;13.508;2024-03-06T13:32:41;1.00;;;0.93;;
13733;SDS011;43298;52.560;13.508;2024-03-06T13:35:13;0.38;;;0.38;;
13733;SDS011;43298;52.560;13.508;2024-03-06T13:37:42;0.65;;;0.65;;
13733;SDS011;43298;52.560;13.508;2024-03-06T13:40:09;0.50;;;0.50;;
13733;SDS011;43298;52.560;13.508;2024-03-06T13:42:38;1.08;;;1.08;;
13733;SDS011;43298;52.560;13.508;2024-03-06T13:45:08;0.60;;;0.60;;
13733;SDS011;43298;52.560;13.508;2024-03-06T13:47:39;0.40;;;0.40;;
13733;SDS011;43298;52.560;13.508;2024-03-06T13:50:10;1.58;;;1.33;;
13733;SDS011;43298;52.560;13.508;2024-03-06T13:52:37;2.35;;;1.27;;
13733;SDS011;43298;52.560;13.508;2024-03-06T13:55:04;0.40;;;0.40;;
13733;SDS011;43298;52.560;13.508;2024-03-06T13:57:31;2.67;;;1.35;;
13733;SDS011;43298;52.560;13.508;2024-03-06T14:00:04;0.60;;;0.60;;
13733;SDS011;43298;52.560;13.508;2024-03-06T14:02:37;0.88;;;0.88;;
13733;SDS011;43298;52.560;13.508;2024-03-06T14:05:05;0.43;;;0.43;;
13733;SDS011;43298;52.560;13.508;2024-03-06T14:07:31;0.50;;;0.50;;
13733;SDS011;43298;52.560;13.508;2024-03-06T14:09:59;2.03;;;1.92;;
13733;SDS011;43298;52.560;13.508;2024-03-06T14:12:24;4.70;;;1.20;;
13733;SDS011;43298;52.560;13.508;2024-03-06T14:14:50;1.17;;;1.08;;
13733;SDS011;43298;52.560;13.508;2024-03-06T14:17:16;0.40;;;0.40;;
13733;SDS011;43298;52.560;13.508;2024-03-06T14:19:42;1.70;;;1.60;;
13733;SDS011;43298;52.560;13.508;2024-03-06T14:22:07;1.55;;;0.98;;
13733;SDS011;43298;52.560;13.508;2024-03-06T14:24:34;0.70;;;0.70;;
13733;SDS011;43298;52.560;13.508;2024-03-06T14:27:00;1.08;;;1.08;;
13733;SDS011;43298;52.560;13.508;2024-03-06T14:29:27;1.77;;;1.67;;
13733;SDS011;43298;52.560;13.508;2024-03-06T14:31:54;0.43;;;0.43;;
13733;SDS011;43298;52.560;13.508;2024-03-06T14:34:20;0.95;;;0.82;;
13733;SDS011;43298;52.560;13.508;2024-03-06T14:36:49;0.68;;;0.68;;
13733;SDS011;43298;52.560;13.508;2024-03-06T14:39:16;2.13;;;1.95;;
13733;SDS011;43298;52.560;13.508;2024-03-06T14:41:50;0.95;;;0.88;;
13733;SDS011;43298;52.560;13.508;2024-03-06T14:44:16;2.28;;;2.05;;
13733;SDS011;43298;52.560;13.508;2024-03-06T14:46:42;1.50;;;1.40;;
13733;SDS011;43298;52.560;13.508;2024-03-06T14:49:08;1.17;;;0.57;;